createdAt,value
2018-11-03T00:00:19.244Z,83.68
2018-11-03T00:01:19.181Z,84.20
2018-11-03T00:02:19.172Z,83.92
2018-11-03T00:03:19.348Z,83.61
2018-11-03T00:04:19.201Z,83.30
2018-11-03T00:05:19.176Z,83.20
2018-11-03T00:06:19.127Z,82.78
2018-11-03T00:07:19.142Z,83.30
2018-11-03T00:08:19.141Z,83.61
2018-11-03T00:09:19.129Z,84.65
2018-11-03T00:10:19.086Z,84.96
2018-11-03T00:11:19.190Z,84.75
2018-11-03T00:12:19.105Z,85.28
2018-11-03T00:13:19.052Z,85.28
2018-11-03T00:14:19.097Z,84.96
2018-11-03T00:15:19.040Z,84.48
2018-11-03T00:16:19.017Z,84.80
2018-11-03T00:17:19.083Z,84.55
2018-11-03T00:18:18.994Z,84.48
2018-11-03T00:19:19.011Z,84.69
2018-11-03T00:20:18.972Z,84.27
2018-11-03T00:21:18.961Z,84.06
2018-11-03T00:22:18.958Z,84.48
2018-11-03T00:23:19.032Z,84.48
2018-11-03T00:24:18.976Z,84.59
2018-11-03T00:25:18.921Z,84.48
2018-11-03T00:26:18.917Z,84.69
2018-11-03T00:27:18.977Z,84.96
2018-11-03T00:28:18.907Z,85.31
2018-11-03T00:29:18.915Z,85.11
2018-11-03T00:30:18.918Z,84.59
2018-11-03T00:31:18.862Z,84.06
2018-11-03T00:32:18.852Z,84.69
2018-11-03T00:33:18.836Z,84.90
2018-11-03T00:34:18.851Z,84.94
2018-11-03T00:35:18.812Z,84.83
2018-11-03T00:36:18.798Z,85.56
2018-11-03T00:37:18.872Z,84.63
2018-11-03T00:38:18.815Z,84.31
2018-11-03T00:39:18.796Z,84.21
2018-11-03T00:40:18.796Z,84.21
2018-11-03T00:41:18.755Z,84.83
2018-11-03T00:42:18.915Z,84.52
2018-11-03T00:43:18.733Z,85.21
2018-11-03T00:44:18.738Z,84.80
2018-11-03T00:45:18.722Z,84.42
2018-11-03T00:46:18.725Z,84.52
2018-11-03T00:47:18.681Z,84.63
2018-11-03T00:48:18.686Z,84.00
2018-11-03T00:49:18.677Z,84.42
2018-11-03T00:50:18.669Z,85.46
2018-11-03T00:51:18.661Z,85.35
2018-11-03T00:52:18.628Z,84.94
2018-11-03T00:53:18.669Z,84.52
2018-11-03T00:54:18.636Z,85.14
2018-11-03T00:55:18.599Z,85.14
2018-11-03T00:56:18.626Z,84.94
2018-11-03T00:57:18.567Z,84.73
2018-11-03T00:58:18.573Z,85.56
2018-11-03T00:59:18.591Z,85.77
2018-11-03T01:00:18.585Z,85.14
2018-11-03T01:01:18.545Z,84.52
2018-11-03T01:02:18.514Z,84.31
2018-11-03T01:03:18.510Z,84.52
2018-11-03T01:04:18.528Z,85.14
2018-11-03T01:05:18.627Z,85.04
2018-11-03T01:06:18.470Z,85.35
2018-11-03T01:07:18.523Z,85.35
2018-11-03T01:08:18.450Z,84.94
2018-11-03T01:09:18.449Z,85.04
2018-11-03T01:10:18.479Z,84.25
2018-11-03T01:11:18.438Z,84.66
2018-11-03T01:12:18.415Z,83.62
2018-11-03T01:13:18.393Z,84.77
2018-11-03T01:14:18.394Z,84.42
2018-11-03T01:15:18.405Z,84.56
2018-11-03T01:16:18.373Z,84.77
2018-11-03T01:17:18.352Z,84.45
2018-11-03T01:18:18.351Z,84.04
2018-11-03T01:19:18.338Z,84.56
2018-11-03T01:20:18.359Z,84.14
2018-11-03T01:21:18.309Z,84.31
2018-11-03T01:22:18.294Z,84.66
2018-11-03T01:23:18.281Z,84.87
2018-11-03T01:24:18.274Z,85.08
2018-11-03T01:25:18.291Z,85.39
2018-11-03T01:26:18.259Z,85.91
2018-11-03T01:27:18.341Z,85.39
2018-11-03T01:28:18.241Z,85.39
2018-11-03T01:29:18.261Z,86.12
2018-11-03T01:30:18.231Z,86.12
2018-11-03T01:31:18.202Z,85.39
2018-11-03T01:32:18.203Z,85.50
2018-11-03T01:33:18.181Z,85.39
2018-11-03T01:34:18.194Z,84.87
2018-11-03T01:35:18.178Z,85.08
2018-11-03T01:36:18.192Z,85.29
2018-11-03T01:37:18.136Z,84.77
2018-11-03T01:38:18.209Z,84.77
2018-11-03T01:39:18.167Z,84.98
2018-11-03T01:40:18.117Z,84.60
2018-11-03T01:41:18.133Z,84.77
2018-11-03T01:42:18.073Z,85.50
2018-11-03T01:43:18.062Z,85.50
2018-11-03T01:44:18.057Z,85.53
2018-11-03T01:45:18.190Z,85.91
2018-11-03T01:46:18.038Z,85.91
2018-11-03T01:47:18.021Z,85.50
2018-11-03T01:48:18.044Z,85.08
2018-11-03T01:49:18.011Z,84.39
2018-11-03T01:50:18.033Z,84.45
2018-11-03T01:51:18.015Z,84.18
2018-11-03T01:52:17.966Z,84.14
2018-11-03T01:53:17.982Z,84.98
2018-11-03T01:54:17.941Z,84.87
2018-11-03T01:55:17.972Z,85.19
2018-11-03T01:56:18.006Z,85.50
2018-11-03T01:57:17.925Z,85.39
2018-11-03T01:58:17.898Z,85.91
2018-11-03T01:59:17.892Z,85.81
2018-11-03T02:00:18.004Z,85.19
2018-11-03T02:01:17.900Z,84.56
2018-11-03T02:02:17.870Z,84.45
2018-11-03T02:03:17.932Z,84.45
2018-11-03T02:04:17.841Z,84.14
2018-11-03T02:05:17.939Z,84.98
2018-11-03T02:06:17.837Z,85.12
2018-11-03T02:07:17.821Z,85.50
2018-11-03T02:08:17.790Z,84.87
2018-11-03T02:09:17.825Z,84.35
2018-11-03T02:10:17.770Z,84.66
2018-11-03T02:11:17.810Z,85.39
2018-11-03T02:12:17.790Z,85.19
2018-11-03T02:13:17.745Z,85.22
2018-11-03T02:14:17.784Z,85.64
2018-11-03T02:15:17.725Z,85.39
2018-11-03T02:16:17.747Z,85.60
2018-11-03T02:17:17.758Z,85.64
2018-11-03T02:18:17.686Z,84.77
2018-11-03T02:19:17.708Z,84.70
2018-11-03T02:20:17.656Z,84.45
2018-11-03T02:21:17.742Z,84.39
2018-11-03T02:22:17.694Z,84.35
2018-11-03T02:23:17.649Z,84.39
2018-11-03T02:24:17.624Z,84.35
2018-11-03T02:25:17.608Z,84.04
2018-11-03T02:26:17.599Z,84.60
2018-11-03T02:27:17.646Z,83.52
2018-11-03T02:28:17.584Z,83.35
2018-11-03T02:29:17.560Z,83.35
2018-11-03T02:30:17.587Z,83.35
2018-11-03T02:31:17.548Z,83.56
2018-11-03T02:32:17.577Z,83.66
2018-11-03T02:33:17.515Z,83.97
2018-11-03T02:34:17.505Z,84.08
2018-11-03T02:35:17.615Z,84.70
2018-11-03T02:36:17.503Z,84.18
2018-11-03T02:37:17.537Z,84.60
2018-11-03T02:38:17.530Z,84.18
2018-11-03T02:39:17.451Z,84.08
2018-11-03T02:40:17.480Z,84.08
2018-11-03T02:41:17.443Z,84.70
2018-11-03T02:42:17.442Z,84.60
2018-11-03T02:43:17.409Z,85.12
2018-11-03T02:44:17.406Z,84.91
2018-11-03T02:45:17.435Z,85.64
2018-11-03T02:46:17.404Z,85.22
2018-11-03T02:47:17.389Z,84.81
2018-11-03T02:48:17.359Z,85.22
2018-11-03T02:49:17.342Z,85.74
2018-11-03T02:50:17.332Z,85.68
2018-11-03T02:51:17.321Z,85.16
2018-11-03T02:52:17.389Z,85.89
2018-11-03T02:53:17.337Z,86.10
2018-11-03T02:54:17.289Z,85.58
2018-11-03T02:55:17.290Z,85.36
2018-11-03T02:56:17.267Z,85.78
2018-11-03T02:57:17.303Z,85.89
2018-11-03T02:58:17.297Z,85.89
2018-11-03T02:59:17.231Z,86.10
2018-11-03T03:00:17.222Z,86.30
2018-11-03T03:01:17.228Z,87.04
2018-11-03T03:02:17.205Z,86.51
2018-11-03T03:03:17.300Z,86.41
2018-11-03T03:04:17.202Z,86.06
2018-11-03T03:05:17.184Z,86.89
2018-11-03T03:06:17.156Z,86.68
2018-11-03T03:07:17.302Z,86.79
2018-11-03T03:08:17.160Z,86.27
2018-11-03T03:09:17.139Z,86.37
2018-11-03T03:10:17.125Z,85.74
2018-11-03T03:11:17.126Z,85.33
2018-11-03T03:12:17.117Z,85.74
2018-11-03T03:13:17.120Z,85.26
2018-11-03T03:14:17.187Z,84.84
2018-11-03T03:15:17.091Z,84.74
2018-11-03T03:16:17.076Z,84.84
2018-11-03T03:17:17.035Z,84.95
2018-11-03T03:18:17.052Z,85.68
2018-11-03T03:19:17.028Z,85.89
2018-11-03T03:20:17.094Z,85.68
2018-11-03T03:21:16.993Z,85.47
2018-11-03T03:22:16.995Z,85.99
2018-11-03T03:23:17.015Z,85.78
2018-11-03T03:24:16.957Z,85.47
2018-11-03T03:25:16.952Z,85.58
2018-11-03T03:26:16.941Z,86.20
2018-11-03T03:27:17.014Z,85.96
2018-11-03T03:28:16.935Z,87.04
2018-11-03T03:29:17.015Z,86.99
2018-11-03T03:30:16.892Z,86.79
2018-11-03T03:31:16.920Z,86.79
2018-11-03T03:32:16.894Z,86.47
2018-11-03T03:33:16.863Z,86.99
2018-11-03T03:34:16.913Z,86.68
2018-11-03T03:35:16.844Z,86.89
2018-11-03T03:36:16.845Z,85.85
2018-11-03T03:37:16.825Z,85.74
2018-11-03T03:38:16.846Z,86.79
2018-11-03T03:39:17.402Z,85.96
2018-11-03T03:40:16.792Z,85.85
2018-11-03T03:41:16.774Z,85.22
2018-11-03T03:42:16.789Z,85.43
2018-11-03T03:43:16.799Z,85.53
2018-11-03T03:44:16.802Z,85.85
2018-11-03T03:45:16.750Z,85.85
2018-11-03T03:46:16.728Z,85.22
2018-11-03T03:47:16.704Z,85.12
2018-11-03T03:48:16.743Z,85.85
2018-11-03T03:49:16.709Z,85.74
2018-11-03T03:50:16.671Z,85.43
2018-11-03T03:51:16.688Z,85.96
2018-11-03T03:52:16.652Z,86.47
2018-11-03T03:53:16.694Z,86.99
2018-11-03T03:54:16.683Z,86.47
2018-11-03T03:55:16.626Z,86.79
2018-11-03T03:56:16.617Z,86.27
2018-11-03T03:57:16.615Z,85.53
2018-11-03T03:58:16.644Z,85.43
2018-11-03T03:59:16.593Z,85.64
2018-11-03T04:00:16.678Z,85.53
2018-11-03T04:01:16.561Z,85.85
2018-11-03T04:02:16.577Z,86.16
2018-11-03T04:03:16.543Z,86.99
2018-11-03T04:04:16.652Z,86.99
2018-11-03T04:05:16.533Z,86.47
2018-11-03T04:06:16.500Z,86.16
2018-11-03T04:07:16.522Z,86.79
2018-11-03T04:08:16.471Z,86.79
2018-11-03T04:09:16.481Z,86.89
2018-11-03T04:10:16.481Z,86.58
2018-11-03T04:11:16.466Z,86.99
2018-11-03T04:12:16.427Z,86.99
2018-11-03T04:13:16.454Z,86.99
2018-11-03T04:14:16.422Z,86.58
2018-11-03T04:15:16.442Z,86.06
2018-11-03T04:16:16.399Z,85.96
2018-11-03T04:17:16.469Z,85.74
2018-11-03T04:18:16.392Z,85.02
2018-11-03T04:19:16.365Z,85.12
2018-11-03T04:20:16.388Z,85.43
2018-11-03T04:21:16.333Z,85.74
2018-11-03T04:22:16.364Z,85.96
2018-11-03T04:23:16.341Z,85.43
2018-11-03T04:24:16.307Z,85.96
2018-11-03T04:25:16.328Z,85.64
2018-11-03T04:26:16.343Z,85.26
2018-11-03T04:27:16.271Z,85.43
2018-11-03T04:28:16.283Z,85.64
2018-11-03T04:29:16.243Z,85.53
2018-11-03T04:30:16.254Z,85.74
2018-11-03T04:31:16.281Z,86.06
2018-11-03T04:32:16.228Z,86.16
2018-11-03T04:33:16.249Z,86.58
2018-11-03T04:34:16.206Z,86.16
2018-11-03T04:35:16.200Z,86.06
2018-11-03T04:36:16.219Z,86.37
2018-11-03T04:37:16.161Z,87.10
2018-11-03T04:38:16.208Z,87.10
2018-11-03T04:39:16.149Z,87.41
2018-11-03T04:40:16.126Z,86.89
2018-11-03T04:41:16.149Z,87.41
2018-11-03T04:42:16.102Z,86.89
2018-11-03T04:43:16.144Z,86.27
2018-11-03T04:44:16.078Z,86.99
2018-11-03T04:45:16.091Z,86.96
2018-11-03T04:46:16.086Z,87.62
2018-11-03T04:47:16.055Z,87.41
2018-11-03T04:48:16.125Z,87.10
2018-11-03T04:49:16.063Z,87.41
2018-11-03T04:50:16.018Z,87.48
2018-11-03T04:51:16.032Z,86.89
2018-11-03T04:52:16.058Z,87.10
2018-11-03T04:53:15.983Z,87.10
2018-11-03T04:54:15.986Z,86.89
2018-11-03T04:55:16.029Z,86.47
2018-11-03T04:56:16.041Z,86.96
2018-11-03T04:57:15.954Z,87.10
2018-11-03T04:58:15.926Z,87.10
2018-11-03T04:59:15.924Z,86.79
2018-11-03T05:00:15.911Z,86.79
2018-11-03T05:01:15.912Z,86.22
2018-11-03T05:02:15.943Z,86.54
2018-11-03T05:03:15.893Z,86.06
2018-11-03T05:04:15.869Z,87.06
2018-11-03T05:05:15.868Z,86.96
2018-11-03T05:06:15.855Z,87.20
2018-11-03T05:07:15.859Z,87.58
2018-11-03T05:08:15.835Z,87.16
2018-11-03T05:09:15.856Z,87.79
2018-11-03T05:10:15.823Z,86.99
2018-11-03T05:11:15.801Z,86.75
2018-11-03T05:12:15.816Z,86.43
2018-11-03T05:13:15.772Z,86.65
2018-11-03T05:14:15.767Z,86.33
2018-11-03T05:15:15.741Z,86.27
2018-11-03T05:16:15.747Z,86.33
2018-11-03T05:17:15.758Z,86.68
2018-11-03T05:18:15.775Z,86.27
2018-11-03T05:19:15.703Z,85.91
2018-11-03T05:20:15.710Z,86.27
2018-11-03T05:21:15.748Z,85.74
2018-11-03T05:22:15.706Z,86.33
2018-11-03T05:23:15.668Z,86.96
2018-11-03T05:24:15.642Z,86.96
2018-11-03T05:25:15.669Z,86.96
2018-11-03T05:26:15.620Z,87.06
2018-11-03T05:27:15.630Z,86.96
2018-11-03T05:28:15.771Z,87.27
2018-11-03T05:29:15.602Z,87.37
2018-11-03T05:30:15.601Z,87.79
2018-11-03T05:31:15.712Z,86.85
2018-11-03T05:32:15.592Z,87.06
2018-11-03T05:33:15.575Z,87.27
2018-11-03T05:34:15.556Z,86.96
2018-11-03T05:35:15.558Z,86.54
2018-11-03T05:36:15.538Z,86.91
2018-11-03T05:37:15.506Z,87.54
2018-11-03T05:38:15.525Z,86.96
2018-11-03T05:39:15.494Z,87.06
2018-11-03T05:40:15.470Z,86.33
2018-11-03T05:41:15.474Z,86.43
2018-11-03T05:42:15.450Z,86.96
2018-11-03T05:43:15.491Z,87.06
2018-11-03T05:44:15.427Z,87.16
2018-11-03T05:45:15.512Z,87.73
2018-11-03T05:46:15.470Z,87.48
2018-11-03T05:47:15.454Z,87.48
2018-11-03T05:48:15.562Z,87.27
2018-11-03T05:49:15.401Z,86.96
2018-11-03T05:50:15.360Z,86.54
2018-11-03T05:51:15.442Z,86.79
2018-11-03T05:52:15.356Z,86.85
2018-11-03T05:53:15.348Z,87.79
2018-11-03T05:54:15.342Z,87.41
2018-11-03T05:55:15.335Z,87.58
2018-11-03T05:56:15.304Z,87.52
2018-11-03T05:57:15.290Z,87.30
2018-11-03T05:58:15.385Z,87.37
2018-11-03T05:59:15.272Z,87.62
2018-11-03T06:00:15.327Z,87.41
2018-11-03T06:01:15.242Z,87.89
2018-11-03T06:02:15.271Z,86.89
2018-11-03T06:03:15.260Z,87.30
2018-11-03T06:04:15.204Z,86.79
2018-11-03T06:05:15.335Z,87.20
2018-11-03T06:06:15.204Z,86.89
2018-11-03T06:07:15.178Z,86.89
2018-11-03T06:08:15.167Z,86.99
2018-11-03T06:09:15.276Z,87.10
2018-11-03T06:10:15.141Z,86.27
2018-11-03T06:11:15.169Z,86.58
2018-11-03T06:12:15.127Z,86.16
2018-11-03T06:13:15.136Z,86.47
2018-11-03T06:14:15.236Z,85.85
2018-11-03T06:15:15.156Z,85.64
2018-11-03T06:16:15.090Z,85.96
2018-11-03T06:17:15.086Z,86.06
2018-11-03T06:18:15.066Z,85.74
2018-11-03T06:19:15.072Z,86.79
2018-11-03T06:20:15.032Z,86.79
2018-11-03T06:21:15.074Z,87.41
2018-11-03T06:22:15.074Z,87.48
2018-11-03T06:23:15.030Z,86.96
2018-11-03T06:24:15.154Z,86.75
2018-11-03T06:25:15.117Z,86.99
2018-11-03T06:26:14.970Z,87.62
2018-11-03T06:27:15.363Z,87.10
2018-11-03T06:28:15.110Z,87.10
2018-11-03T06:29:14.960Z,87.52
2018-11-03T06:30:14.921Z,86.89
2018-11-03T06:31:14.914Z,87.62
2018-11-03T06:32:14.911Z,88.10
2018-11-03T06:33:14.939Z,88.20
2018-11-03T06:34:14.928Z,88.62
2018-11-03T06:35:14.972Z,88.42
2018-11-03T06:36:14.862Z,87.99
2018-11-03T06:37:14.859Z,87.48
2018-11-03T06:38:14.936Z,87.89
2018-11-03T06:39:14.877Z,87.99
2018-11-03T06:40:14.812Z,88.20
2018-11-03T06:41:14.802Z,88.10
2018-11-03T06:42:14.932Z,88.20
2018-11-03T06:43:14.801Z,88.20
2018-11-03T06:44:14.769Z,87.79
2018-11-03T06:45:14.781Z,88.31
2018-11-03T06:46:14.818Z,87.96
2018-11-03T06:47:14.797Z,87.79
2018-11-03T06:48:14.768Z,87.48
2018-11-03T06:49:14.716Z,87.27
2018-11-03T06:50:14.740Z,87.58
2018-11-03T06:51:14.777Z,87.27
2018-11-03T06:52:14.743Z,87.27
2018-11-03T06:53:14.707Z,86.54
2018-11-03T06:54:14.688Z,86.85
2018-11-03T06:55:14.756Z,86.65
2018-11-03T06:56:15.314Z,87.16
2018-11-03T06:57:14.923Z,87.06
2018-11-03T06:58:14.666Z,86.96
2018-11-03T06:59:14.623Z,87.20
2018-11-03T07:00:14.620Z,88.20
2018-11-03T07:01:14.583Z,87.48
2018-11-03T07:02:14.621Z,87.48
2018-11-03T07:03:14.650Z,87.27
2018-11-03T07:04:14.573Z,87.37
2018-11-03T07:05:14.754Z,87.43
2018-11-03T07:06:14.532Z,87.06
2018-11-03T07:07:14.614Z,87.16
2018-11-03T07:08:14.548Z,87.48
2018-11-03T07:09:14.495Z,87.27
2018-11-03T07:10:14.679Z,87.27
2018-11-03T07:11:14.549Z,87.58
2018-11-03T07:12:14.515Z,87.96
2018-11-03T07:13:14.591Z,88.37
2018-11-03T07:14:14.455Z,87.85
2018-11-03T07:15:14.509Z,87.54
2018-11-03T07:16:14.435Z,87.54
2018-11-03T07:17:14.453Z,87.23
2018-11-03T07:18:14.399Z,87.23
2018-11-03T07:19:14.458Z,87.43
2018-11-03T07:20:14.751Z,87.54
2018-11-03T07:21:14.394Z,87.33
2018-11-03T07:22:14.422Z,86.60
2018-11-03T07:23:14.353Z,86.77
2018-11-03T07:24:14.337Z,86.29
2018-11-03T07:25:14.388Z,86.35
2018-11-03T07:26:14.357Z,85.94
2018-11-03T07:27:14.306Z,85.94
2018-11-03T07:28:14.289Z,85.83
2018-11-03T07:29:14.288Z,85.42
2018-11-03T07:30:14.282Z,85.88
2018-11-03T07:31:14.340Z,85.46
2018-11-03T07:32:14.240Z,85.56
2018-11-03T07:33:14.761Z,85.63
2018-11-03T07:34:14.241Z,85.67
2018-11-03T07:35:14.217Z,85.67
2018-11-03T07:36:14.235Z,85.21
2018-11-03T07:37:14.260Z,86.19
2018-11-03T07:38:14.175Z,86.40
2018-11-03T07:39:14.178Z,85.67
2018-11-03T07:40:14.160Z,85.67
2018-11-03T07:41:14.213Z,85.98
2018-11-03T07:42:14.141Z,86.40
2018-11-03T07:43:14.179Z,86.40
2018-11-03T07:44:14.110Z,86.88
2018-11-03T07:45:14.131Z,87.29
2018-11-03T07:46:14.171Z,86.88
2018-11-03T07:47:14.083Z,88.02
2018-11-03T07:48:14.109Z,88.33
2018-11-03T07:49:14.263Z,88.02
2018-11-03T07:50:14.050Z,87.40
2018-11-03T07:51:14.064Z,87.88
2018-11-03T07:52:14.032Z,87.98
2018-11-03T07:53:14.127Z,87.66
2018-11-03T07:54:14.006Z,88.09
2018-11-03T07:55:14.742Z,87.77
2018-11-03T07:56:14.074Z,87.88
2018-11-03T07:57:13.974Z,87.77
2018-11-03T07:58:13.973Z,87.98
2018-11-03T07:59:13.953Z,88.29
2018-11-03T08:00:13.964Z,88.92
2018-11-03T08:01:13.925Z,88.50
2018-11-03T08:02:14.017Z,88.19
2018-11-03T08:03:13.903Z,88.12
2018-11-03T08:04:13.925Z,88.50
2018-11-03T08:05:13.906Z,89.54
2018-11-03T08:06:13.880Z,89.33
2018-11-03T08:07:13.903Z,88.81
2018-11-03T08:08:13.862Z,89.23
2018-11-03T08:09:14.858Z,89.43
2018-11-03T08:10:13.875Z,89.33
2018-11-03T08:11:13.872Z,88.92
2018-11-03T08:12:13.836Z,89.33
2018-11-03T08:13:13.925Z,89.95
2018-11-03T08:14:13.815Z,88.50
2018-11-03T08:15:14.317Z,88.60
2018-11-03T08:16:13.766Z,88.19
2018-11-03T08:17:13.780Z,88.40
2018-11-03T08:18:13.757Z,89.02
2018-11-03T08:19:13.740Z,89.12
2018-11-03T08:20:13.727Z,89.12
2018-11-03T08:21:13.711Z,89.12
2018-11-03T08:22:13.718Z,89.12
2018-11-03T08:23:13.739Z,89.29
2018-11-03T08:24:13.679Z,89.81
2018-11-03T08:25:13.662Z,89.92
2018-11-03T08:26:13.663Z,89.92
2018-11-03T08:27:13.672Z,89.60
2018-11-03T08:28:13.633Z,89.92
2018-11-03T08:29:13.648Z,90.08
2018-11-03T08:30:13.623Z,89.77
2018-11-03T08:31:13.606Z,89.56
2018-11-03T08:32:13.615Z,88.62
2018-11-03T08:33:13.608Z,89.21
2018-11-03T08:34:13.564Z,88.17
2018-11-03T08:35:13.561Z,87.27
2018-11-03T08:36:13.556Z,87.45
2018-11-03T08:37:13.750Z,87.79
2018-11-03T08:38:13.591Z,88.00
2018-11-03T08:39:13.536Z,87.59
2018-11-03T08:40:13.577Z,87.59
2018-11-03T08:41:13.491Z,87.69
2018-11-03T08:42:14.235Z,88.00
2018-11-03T08:43:13.600Z,88.10
2018-11-03T08:44:13.460Z,87.90
2018-11-03T08:45:13.453Z,87.96
2018-11-03T08:46:13.534Z,88.00
2018-11-03T08:47:13.494Z,87.96
2018-11-03T08:48:13.594Z,87.79
2018-11-03T08:49:13.412Z,88.07
2018-11-03T08:50:13.423Z,87.86
2018-11-03T08:51:13.407Z,88.62
2018-11-03T08:52:13.383Z,87.69
2018-11-03T08:53:13.446Z,87.48
2018-11-03T08:54:13.378Z,87.69
2018-11-03T08:55:13.343Z,86.86
2018-11-03T08:56:13.323Z,87.38
2018-11-03T08:57:13.318Z,87.59
2018-11-03T08:58:13.333Z,88.10
2018-11-03T08:59:13.302Z,87.96
2018-11-03T09:00:13.385Z,88.07
2018-11-03T09:01:13.286Z,88.17
2018-11-03T09:02:13.309Z,87.71
2018-11-03T09:03:13.273Z,87.86
2018-11-03T09:04:13.234Z,87.86
2018-11-03T09:05:13.268Z,87.03
2018-11-03T09:06:13.231Z,86.78
2018-11-03T09:07:13.413Z,87.71
2018-11-03T09:08:13.232Z,87.61
2018-11-03T09:09:13.332Z,87.47
2018-11-03T09:10:13.189Z,87.78
2018-11-03T09:11:13.187Z,87.37
2018-11-03T09:12:13.246Z,87.16
2018-11-03T09:13:13.291Z,86.95
2018-11-03T09:14:13.147Z,86.54
2018-11-03T09:15:13.338Z,86.54
2018-11-03T09:16:13.155Z,86.74
2018-11-03T09:17:13.102Z,87.37
2018-11-03T09:18:13.110Z,87.53
2018-11-03T09:19:13.077Z,87.12
2018-11-03T09:20:13.059Z,87.43
2018-11-03T09:21:13.049Z,86.39
2018-11-03T09:22:13.042Z,86.70
2018-11-03T09:23:13.063Z,87.01
2018-11-03T09:24:13.061Z,86.49
2018-11-03T09:25:13.035Z,87.12
2018-11-03T09:26:13.022Z,87.12
2018-11-03T09:27:13.014Z,86.49
2018-11-03T09:28:12.978Z,86.91
2018-11-03T09:29:13.039Z,86.97
2018-11-03T09:30:13.054Z,86.66
2018-11-03T09:31:13.723Z,87.01
2018-11-03T09:32:12.950Z,86.15
2018-11-03T09:33:12.924Z,85.73
2018-11-03T09:34:12.988Z,86.35
2018-11-03T09:35:12.965Z,86.76
2018-11-03T09:36:13.258Z,86.25
2018-11-03T09:37:13.723Z,87.49
2018-11-03T09:38:12.872Z,86.55
2018-11-03T09:39:12.948Z,86.62
2018-11-03T09:40:13.307Z,85.27
2018-11-03T09:41:13.278Z,85.38
2018-11-03T09:42:12.817Z,86.00
2018-11-03T09:43:12.877Z,86.31
2018-11-03T09:44:12.823Z,86.00
2018-11-03T09:45:12.884Z,86.21
2018-11-03T09:46:12.776Z,86.21
2018-11-03T09:47:12.778Z,84.96
2018-11-03T09:48:12.759Z,85.17
2018-11-03T09:49:12.958Z,85.69
2018-11-03T09:50:12.744Z,85.48
2018-11-03T09:51:12.766Z,85.06
2018-11-03T09:52:12.803Z,85.38
2018-11-03T09:53:12.758Z,85.38
2018-11-03T09:54:12.731Z,85.58
2018-11-03T09:55:12.682Z,85.48
2018-11-03T09:56:12.670Z,85.34
2018-11-03T09:57:12.655Z,84.78
2018-11-03T09:58:12.663Z,85.03
2018-11-03T09:59:12.643Z,84.88
2018-11-03T10:00:12.661Z,84.58
2018-11-03T10:01:12.624Z,84.88
2018-11-03T10:02:12.600Z,84.37
2018-11-03T10:03:12.613Z,83.61
2018-11-03T10:04:12.622Z,83.09
2018-11-03T10:05:12.783Z,83.87
2018-11-03T10:06:12.723Z,82.78
2018-11-03T10:07:12.541Z,82.95
2018-11-03T10:08:12.577Z,83.25
2018-11-03T10:09:12.596Z,82.39
2018-11-03T10:10:12.559Z,82.50
2018-11-03T10:11:12.656Z,82.35
2018-11-03T10:12:12.487Z,81.59
2018-11-03T10:13:12.478Z,81.90
2018-11-03T10:14:12.509Z,81.07
2018-11-03T10:15:12.527Z,79.80
2018-11-03T10:16:12.569Z,80.42
2018-11-03T10:17:12.446Z,79.45
2018-11-03T10:18:12.440Z,80.07
2018-11-03T10:19:12.421Z,79.58
2018-11-03T10:20:12.450Z,77.28
2018-11-03T10:21:12.403Z,76.49
2018-11-03T10:22:12.460Z,74.87
2018-11-03T10:23:12.369Z,73.71
2018-11-03T10:24:12.364Z,71.08
2018-11-03T10:25:12.389Z,70.76
2018-11-03T10:26:12.331Z,70.53
2018-11-03T10:27:12.357Z,70.63
2018-11-03T10:28:12.343Z,71.04
2018-11-03T10:29:12.298Z,70.50
2018-11-03T10:30:12.321Z,69.16
2018-11-03T10:31:12.283Z,69.95
2018-11-03T10:32:12.280Z,68.89
2018-11-03T10:33:12.260Z,67.83
2018-11-03T10:34:12.255Z,66.47
2018-11-03T10:35:12.251Z,65.96
2018-11-03T10:36:12.218Z,65.55
2018-11-03T10:37:12.205Z,65.14
2018-11-03T10:38:12.202Z,65.45
2018-11-03T10:39:12.188Z,65.93
2018-11-03T10:40:12.179Z,65.83
2018-11-03T10:41:12.188Z,66.44
2018-11-03T10:42:12.169Z,65.72
2018-11-03T10:43:12.137Z,66.67
2018-11-03T10:44:12.129Z,66.54
2018-11-03T10:45:12.138Z,66.34
2018-11-03T10:46:12.207Z,66.13
2018-11-03T10:47:12.112Z,66.37
2018-11-03T10:48:12.088Z,67.19
2018-11-03T10:49:12.072Z,67.52
2018-11-03T10:50:12.064Z,67.32
2018-11-03T10:51:12.124Z,68.17
2018-11-03T10:52:12.036Z,67.35
2018-11-03T10:53:12.029Z,67.35
2018-11-03T10:54:12.031Z,68.79
2018-11-03T10:55:12.018Z,68.82
2018-11-03T10:56:12.017Z,68.62
2018-11-03T10:57:11.996Z,69.78
2018-11-03T10:58:12.000Z,68.96
2018-11-03T10:59:11.978Z,70.18
2018-11-03T11:00:11.949Z,70.18
2018-11-03T11:01:11.978Z,69.06
2018-11-03T11:02:11.934Z,70.29
2018-11-03T11:03:11.924Z,69.26
2018-11-03T11:04:11.930Z,69.98
2018-11-03T11:05:11.892Z,70.08
2018-11-03T11:06:11.941Z,69.88
2018-11-03T11:07:11.869Z,68.92
2018-11-03T11:08:11.864Z,68.82
2018-11-03T11:09:11.879Z,69.23
2018-11-03T11:10:11.841Z,69.92
2018-11-03T11:11:11.830Z,68.99
2018-11-03T11:12:11.841Z,68.76
2018-11-03T11:13:11.811Z,67.29
2018-11-03T11:14:11.868Z,65.31
2018-11-03T11:15:11.789Z,65.83
2018-11-03T11:16:11.793Z,66.69
2018-11-03T11:17:11.807Z,66.58
2018-11-03T11:18:11.759Z,65.30
2018-11-03T11:19:11.749Z,63.63
2018-11-03T11:20:11.842Z,62.48
2018-11-03T11:21:11.723Z,62.01
2018-11-03T11:22:11.737Z,59.75
2018-11-03T11:23:11.710Z,56.93
2018-11-03T11:24:11.786Z,54.92
2018-11-03T11:25:11.784Z,52.94
2018-11-03T11:26:11.662Z,51.95
2018-11-03T11:27:11.679Z,50.18
2018-11-03T11:28:11.650Z,48.19
2018-11-03T11:29:11.651Z,47.74
2018-11-03T11:30:11.694Z,46.47
2018-11-03T11:31:11.655Z,44.79
2018-11-03T11:32:11.622Z,42.24
2018-11-03T11:33:11.580Z,42.80
2018-11-03T11:34:11.603Z,41.27
2018-11-03T11:35:11.561Z,40.37
2018-11-03T11:36:11.561Z,41.37
2018-11-03T11:37:11.663Z,40.95
2018-11-03T11:38:11.624Z,41.17
2018-11-03T11:39:11.515Z,41.37
2018-11-03T11:40:11.503Z,40.87
2018-11-03T11:41:11.495Z,39.97
2018-11-03T11:42:11.513Z,40.55
2018-11-03T11:43:11.561Z,38.64
2018-11-03T11:44:11.476Z,38.94
2018-11-03T11:45:11.452Z,38.34
2018-11-03T11:46:11.437Z,39.26
2018-11-03T11:47:11.438Z,37.65
2018-11-03T11:48:11.518Z,39.36
2018-11-03T11:49:11.404Z,38.32
2018-11-03T11:50:11.437Z,36.02
2018-11-03T11:51:11.385Z,36.83
2018-11-03T11:52:11.369Z,36.77
2018-11-03T11:53:11.411Z,36.77
2018-11-03T11:54:11.413Z,36.87
2018-11-03T11:55:11.336Z,36.33
2018-11-03T11:56:11.346Z,36.27
2018-11-03T11:57:11.322Z,36.57
2018-11-03T11:58:11.339Z,38.20
2018-11-03T11:59:11.301Z,38.51
2018-11-03T12:00:11.284Z,37.91
2018-11-03T12:01:11.314Z,37.83
2018-11-03T12:02:11.296Z,36.24
2018-11-03T12:03:11.262Z,36.55
2018-11-03T12:04:11.257Z,36.86
2018-11-03T12:05:11.222Z,35.86
2018-11-03T12:06:11.217Z,38.30
2018-11-03T12:07:11.296Z,38.48
2018-11-03T12:08:11.244Z,37.46
2018-11-03T12:09:11.204Z,37.85
2018-11-03T12:10:11.382Z,37.73
2018-11-03T12:11:11.222Z,35.71
2018-11-03T12:12:11.144Z,34.84
2018-11-03T12:13:11.135Z,38.48
2018-11-03T12:14:11.462Z,37.88
2018-11-03T12:15:11.116Z,39.73
2018-11-03T12:16:11.363Z,39.03
2018-11-03T12:17:11.092Z,40.46
2018-11-03T12:18:11.096Z,41.67
2018-11-03T12:19:11.091Z,38.95
2018-11-03T12:20:11.161Z,40.96
2018-11-03T12:21:11.040Z,40.86
2018-11-03T12:22:11.036Z,41.05
2018-11-03T12:23:11.018Z,41.45
2018-11-03T12:24:11.041Z,39.85
2018-11-03T12:25:11.012Z,40.98
2018-11-03T12:26:11.052Z,41.39
2018-11-03T12:27:10.973Z,43.40
2018-11-03T12:28:10.960Z,43.20
2018-11-03T12:29:10.975Z,41.79
2018-11-03T12:30:10.945Z,42.82
2018-11-03T12:31:10.945Z,43.34
2018-11-03T12:32:10.984Z,45.08
2018-11-03T12:33:10.946Z,45.41
2018-11-03T12:34:10.983Z,45.03
2018-11-03T12:35:10.912Z,45.73
2018-11-03T12:36:10.877Z,44.92
2018-11-03T12:37:10.864Z,46.26
2018-11-03T12:38:10.851Z,44.54
2018-11-03T12:39:10.917Z,45.78
2018-11-03T12:40:10.877Z,46.69
2018-11-03T12:41:10.885Z,46.10
2018-11-03T12:42:10.855Z,45.79
2018-11-03T12:43:10.805Z,46.51
2018-11-03T12:44:10.826Z,46.10
2018-11-03T12:45:10.800Z,44.81
2018-11-03T12:46:10.841Z,46.25
2018-11-03T12:47:10.761Z,47.46
2018-11-03T12:48:10.848Z,47.38
2018-11-03T12:49:10.747Z,47.18
2018-11-03T12:50:10.773Z,47.18
2018-11-03T12:51:10.744Z,46.90
2018-11-03T12:52:10.836Z,48.83